North Macon, Georgia
Current Conditions -  °F | °C
As of 5:53 PM on Tuesday 25 Nov 2014 (Local Time) from KMCN Reporting Station
Light Rain Light Rain  
Wind Chill: 47°   Ceiling: 4800
Heat Index: 49°   Visibility: 10mi
Dew Point: 48°   Wind: 5mph
Humidity: 97%   Direction: 300°WNW
Pressure: 30.05"   Gusts: NA
Location:  32.874°N, 83.7402°W
Report Text: KMCN 252253Z 30004KT 10SM -RA BKN048 BKN085 OVC100 09/09 A3005 RMK AO2 SLP173 P0002 T00940089
Loading
Personal Weather Stations






























Interactive Weather Map New forecast layout! Learn more

10-Day Weather Forecast

Advertisements
Track Severe Weather on mobile